sensor_id;sensor_type;location;lat;lon;timestamp;temperature;humidity
14283;DHT22;7225;59.282;18.344;2023-02-28T00:01:13;3.80;99.90
14283;DHT22;7225;59.282;18.344;2023-02-28T00:03:41;3.80;99.90
14283;DHT22;7225;59.282;18.344;2023-02-28T00:06:08;3.80;99.90
14283;DHT22;7225;59.282;18.344;2023-02-28T00:08:37;3.70;99.90
14283;DHT22;7225;59.282;18.344;2023-02-28T00:11:06;3.70;99.90
14283;DHT22;7225;59.282;18.344;2023-02-28T00:13:34;3.70;99.90
14283;DHT22;7225;59.282;18.344;2023-02-28T00:16:07;3.70;99.90
14283;DHT22;7225;59.282;18.344;2023-02-28T00:18:36;3.70;99.90
14283;DHT22;7225;59.282;18.344;2023-02-28T00:21:04;3.70;99.90
14283;DHT22;7225;59.282;18.344;2023-02-28T00:23:31;3.70;99.90
14283;DHT22;7225;59.282;18.344;2023-02-28T00:25:58;3.70;99.90
14283;DHT22;7225;59.282;18.344;2023-02-28T00:28:25;3.70;99.90
14283;DHT22;7225;59.282;18.344;2023-02-28T00:30:52;3.70;99.90
14283;DHT22;7225;59.282;18.344;2023-02-28T00:33:19;3.60;99.90
14283;DHT22;7225;59.282;18.344;2023-02-28T00:35:46;3.70;99.90
14283;DHT22;7225;59.282;18.344;2023-02-28T00:38:14;3.70;99.90
14283;DHT22;7225;59.282;18.344;2023-02-28T00:40:41;3.60;99.90
14283;DHT22;7225;59.282;18.344;2023-02-28T00:43:08;3.70;99.90
14283;DHT22;7225;59.282;18.344;2023-02-28T00:45:35;3.70;99.90
14283;DHT22;7225;59.282;18.344;2023-02-28T00:48:02;3.70;99.90
14283;DHT22;7225;59.282;18.344;2023-02-28T00:50:29;3.70;99.90
14283;DHT22;7225;59.282;18.344;2023-02-28T00:52:56;3.70;99.90
14283;DHT22;7225;59.282;18.344;2023-02-28T00:55:23;3.70;99.90
14283;DHT22;7225;59.282;18.344;2023-02-28T00:57:50;3.70;99.90
14283;DHT22;7225;59.282;18.344;2023-02-28T01:00:17;3.60;99.90
14283;DHT22;7225;59.282;18.344;2023-02-28T01:02:44;3.70;99.90
14283;DHT22;7225;59.282;18.344;2023-02-28T01:05:11;3.70;99.90
14283;DHT22;7225;59.282;18.344;2023-02-28T01:07:38;3.60;99.90
14283;DHT22;7225;59.282;18.344;2023-02-28T01:10:06;3.60;99.90
14283;DHT22;7225;59.282;18.344;2023-02-28T01:12:33;3.60;99.90
14283;DHT22;7225;59.282;18.344;2023-02-28T01:15:00;3.50;99.90
14283;DHT22;7225;59.282;18.344;2023-02-28T01:17:27;3.50;99.90
14283;DHT22;7225;59.282;18.344;2023-02-28T01:19:55;3.50;99.90
14283;DHT22;7225;59.282;18.344;2023-02-28T01:22:23;3.50;99.90
14283;DHT22;7225;59.282;18.344;2023-02-28T01:24:50;3.50;99.90
14283;DHT22;7225;59.282;18.344;2023-02-28T01:27:17;3.50;99.90
14283;DHT22;7225;59.282;18.344;2023-02-28T01:29:44;3.50;99.90
14283;DHT22;7225;59.282;18.344;2023-02-28T01:32:11;3.50;99.90
14283;DHT22;7225;59.282;18.344;2023-02-28T01:34:38;3.50;99.90
14283;DHT22;7225;59.282;18.344;2023-02-28T01:37:05;3.50;99.90
14283;DHT22;7225;59.282;18.344;2023-02-28T01:39:32;3.40;99.90
14283;DHT22;7225;59.282;18.344;2023-02-28T01:41:59;3.40;99.90
14283;DHT22;7225;59.282;18.344;2023-02-28T01:47:36;3.40;99.90
14283;DHT22;7225;59.282;18.344;2023-02-28T01:50:18;3.40;99.90
14283;DHT22;7225;59.282;18.344;2023-02-28T01:52:47;3.40;99.90
14283;DHT22;7225;59.282;18.344;2023-02-28T01:55:17;3.40;99.90
14283;DHT22;7225;59.282;18.344;2023-02-28T01:57:53;3.40;99.90
14283;DHT22;7225;59.282;18.344;2023-02-28T02:00:25;3.30;99.90
14283;DHT22;7225;59.282;18.344;2023-02-28T02:02:57;3.30;99.90
14283;DHT22;7225;59.282;18.344;2023-02-28T02:05:28;3.30;99.90
14283;DHT22;7225;59.282;18.344;2023-02-28T02:08:02;3.30;99.90
14283;DHT22;7225;59.282;18.344;2023-02-28T02:10:36;3.30;99.90
14283;DHT22;7225;59.282;18.344;2023-02-28T02:15:58;3.30;99.90
14283;DHT22;7225;59.282;18.344;2023-02-28T02:18:32;3.30;99.90
14283;DHT22;7225;59.282;18.344;2023-02-28T02:27:04;3.20;99.90
14283;DHT22;7225;59.282;18.344;2023-02-28T02:40:20;3.20;99.90
14283;DHT22;7225;59.282;18.344;2023-02-28T02:46:19;3.20;99.90
14283;DHT22;7225;59.282;18.344;2023-02-28T02:48:47;3.10;99.90
14283;DHT22;7225;59.282;18.344;2023-02-28T02:51:16;3.20;99.90
14283;DHT22;7225;59.282;18.344;2023-02-28T02:54:01;3.20;99.90
14283;DHT22;7225;59.282;18.344;2023-02-28T02:56:30;3.20;99.90
14283;DHT22;7225;59.282;18.344;2023-02-28T02:59:02;3.20;99.90
14283;DHT22;7225;59.282;18.344;2023-02-28T03:01:31;3.20;99.90
14283;DHT22;7225;59.282;18.344;2023-02-28T03:04:02;3.20;99.90
14283;DHT22;7225;59.282;18.344;2023-02-28T03:06:29;3.20;99.90
14283;DHT22;7225;59.282;18.344;2023-02-28T03:08:56;3.10;99.90
14283;DHT22;7225;59.282;18.344;2023-02-28T03:11:23;3.10;99.90
14283;DHT22;7225;59.282;18.344;2023-02-28T03:22:40;3.00;99.90
14283;DHT22;7225;59.282;18.344;2023-02-28T03:31:16;2.90;99.90
14283;DHT22;7225;59.282;18.344;2023-02-28T03:33:54;2.90;99.90
14283;DHT22;7225;59.282;18.344;2023-02-28T03:36:31;3.00;99.90
14283;DHT22;7225;59.282;18.344;2023-02-28T03:39:03;2.90;99.90
14283;DHT22;7225;59.282;18.344;2023-02-28T03:41:56;2.90;99.90
14283;DHT22;7225;59.282;18.344;2023-02-28T03:44:40;2.90;99.90
14283;DHT22;7225;59.282;18.344;2023-02-28T03:47:16;2.90;99.90
14283;DHT22;7225;59.282;18.344;2023-02-28T03:49:51;2.90;99.90
14283;DHT22;7225;59.282;18.344;2023-02-28T03:52:22;2.90;99.90
14283;DHT22;7225;59.282;18.344;2023-02-28T03:54:53;2.90;99.90
14283;DHT22;7225;59.282;18.344;2023-02-28T04:00:13;2.90;99.90
14283;DHT22;7225;59.282;18.344;2023-02-28T04:02:42;2.90;99.90
14283;DHT22;7225;59.282;18.344;2023-02-28T04:05:09;2.90;99.90
14283;DHT22;7225;59.282;18.344;2023-02-28T04:07:36;2.90;99.90
14283;DHT22;7225;59.282;18.344;2023-02-28T04:10:04;2.90;99.90
14283;DHT22;7225;59.282;18.344;2023-02-28T04:12:32;2.90;99.90
14283;DHT22;7225;59.282;18.344;2023-02-28T04:14:59;2.90;99.90
14283;DHT22;7225;59.282;18.344;2023-02-28T04:17:26;2.90;99.90
14283;DHT22;7225;59.282;18.344;2023-02-28T04:19:52;2.80;99.90
14283;DHT22;7225;59.282;18.344;2023-02-28T04:22:24;2.80;99.90
14283;DHT22;7225;59.282;18.344;2023-02-28T04:24:54;2.80;99.90
14283;DHT22;7225;59.282;18.344;2023-02-28T04:27:21;2.80;99.90
14283;DHT22;7225;59.282;18.344;2023-02-28T04:29:48;2.80;99.90
14283;DHT22;7225;59.282;18.344;2023-02-28T04:32:15;2.80;99.90
14283;DHT22;7225;59.282;18.344;2023-02-28T04:34:42;2.80;99.90
14283;DHT22;7225;59.282;18.344;2023-02-28T04:37:09;2.80;99.90
14283;DHT22;7225;59.282;18.344;2023-02-28T04:39:40;2.80;99.90
14283;DHT22;7225;59.282;18.344;2023-02-28T04:42:08;2.80;99.90
14283;DHT22;7225;59.282;18.344;2023-02-28T04:44:35;2.80;99.90
14283;DHT22;7225;59.282;18.344;2023-02-28T04:47:02;2.70;99.90
14283;DHT22;7225;59.282;18.344;2023-02-28T04:49:29;2.80;99.90
14283;DHT22;7225;59.282;18.344;2023-02-28T04:51:56;2.70;99.90
14283;DHT22;7225;59.282;18.344;2023-02-28T04:54:23;2.70;99.90
14283;DHT22;7225;59.282;18.344;2023-02-28T04:56:50;2.70;99.90
14283;DHT22;7225;59.282;18.344;2023-02-28T04:59:18;2.70;99.90
14283;DHT22;7225;59.282;18.344;2023-02-28T05:01:49;2.60;99.90
14283;DHT22;7225;59.282;18.344;2023-02-28T05:04:16;2.70;99.90
14283;DHT22;7225;59.282;18.344;2023-02-28T05:06:43;2.60;99.90
14283;DHT22;7225;59.282;18.344;2023-02-28T05:09:10;2.60;99.90
14283;DHT22;7225;59.282;18.344;2023-02-28T05:11:40;2.60;99.90
14283;DHT22;7225;59.282;18.344;2023-02-28T05:14:11;2.60;99.90
14283;DHT22;7225;59.282;18.344;2023-02-28T05:16:38;2.60;99.90
14283;DHT22;7225;59.282;18.344;2023-02-28T05:19:06;2.50;99.90
14283;DHT22;7225;59.282;18.344;2023-02-28T05:21:35;2.60;99.90
14283;DHT22;7225;59.282;18.344;2023-02-28T05:24:05;2.50;99.90
14283;DHT22;7225;59.282;18.344;2023-02-28T05:26:37;2.50;99.90
14283;DHT22;7225;59.282;18.344;2023-02-28T05:29:05;2.50;99.90
14283;DHT22;7225;59.282;18.344;2023-02-28T05:31:32;2.50;99.90
14283;DHT22;7225;59.282;18.344;2023-02-28T05:33:59;2.50;99.90
14283;DHT22;7225;59.282;18.344;2023-02-28T05:36:26;2.40;99.90
14283;DHT22;7225;59.282;18.344;2023-02-28T05:38:54;2.40;99.90
14283;DHT22;7225;59.282;18.344;2023-02-28T05:41:21;2.40;99.90
14283;DHT22;7225;59.282;18.344;2023-02-28T05:43:48;2.40;99.90
14283;DHT22;7225;59.282;18.344;2023-02-28T05:46:16;2.40;99.90
14283;DHT22;7225;59.282;18.344;2023-02-28T05:48:46;2.40;99.90
14283;DHT22;7225;59.282;18.344;2023-02-28T05:51:14;2.40;99.90
14283;DHT22;7225;59.282;18.344;2023-02-28T05:53:41;2.40;99.90
14283;DHT22;7225;59.282;18.344;2023-02-28T05:56:08;2.40;99.90
14283;DHT22;7225;59.282;18.344;2023-02-28T05:58:35;2.40;99.90
14283;DHT22;7225;59.282;18.344;2023-02-28T06:01:35;2.40;99.90
14283;DHT22;7225;59.282;18.344;2023-02-28T06:04:05;2.40;99.90
14283;DHT22;7225;59.282;18.344;2023-02-28T06:06:32;2.40;99.90
14283;DHT22;7225;59.282;18.344;2023-02-28T06:09:04;2.40;99.90
14283;DHT22;7225;59.282;18.344;2023-02-28T06:11:32;2.40;99.90
14283;DHT22;7225;59.282;18.344;2023-02-28T06:14:01;2.40;99.90
14283;DHT22;7225;59.282;18.344;2023-02-28T06:16:29;2.40;99.90
14283;DHT22;7225;59.282;18.344;2023-02-28T06:19:00;2.50;99.90
14283;DHT22;7225;59.282;18.344;2023-02-28T06:21:28;2.50;99.90
14283;DHT22;7225;59.282;18.344;2023-02-28T06:23:57;2.50;99.90
14283;DHT22;7225;59.282;18.344;2023-02-28T06:26:24;2.50;99.90
14283;DHT22;7225;59.282;18.344;2023-02-28T06:28:51;2.50;99.90
14283;DHT22;7225;59.282;18.344;2023-02-28T06:31:19;2.60;99.90
14283;DHT22;7225;59.282;18.344;2023-02-28T06:33:46;2.60;99.90
14283;DHT22;7225;59.282;18.344;2023-02-28T06:36:15;2.60;99.90
14283;DHT22;7225;59.282;18.344;2023-02-28T06:38:43;2.60;99.90
14283;DHT22;7225;59.282;18.344;2023-02-28T06:41:11;2.70;99.90
14283;DHT22;7225;59.282;18.344;2023-02-28T06:43:41;2.70;99.90
14283;DHT22;7225;59.282;18.344;2023-02-28T06:46:11;2.80;99.90
14283;DHT22;7225;59.282;18.344;2023-02-28T06:48:39;2.80;99.90
14283;DHT22;7225;59.282;18.344;2023-02-28T06:51:20;2.90;99.90
14283;DHT22;7225;59.282;18.344;2023-02-28T06:53:49;2.90;99.90
14283;DHT22;7225;59.282;18.344;2023-02-28T06:56:17;3.00;99.90
14283;DHT22;7225;59.282;18.344;2023-02-28T06:58:49;3.00;99.90
14283;DHT22;7225;59.282;18.344;2023-02-28T07:01:16;3.10;99.90
14283;DHT22;7225;59.282;18.344;2023-02-28T07:03:45;3.10;99.90
14283;DHT22;7225;59.282;18.344;2023-02-28T07:06:12;3.10;99.90
14283;DHT22;7225;59.282;18.344;2023-02-28T07:08:38;3.10;99.90
14283;DHT22;7225;59.282;18.344;2023-02-28T07:11:07;3.20;99.90
14283;DHT22;7225;59.282;18.344;2023-02-28T07:13:35;3.20;99.90
14283;DHT22;7225;59.282;18.344;2023-02-28T07:16:05;3.20;99.90
14283;DHT22;7225;59.282;18.344;2023-02-28T07:18:32;3.30;99.90
14283;DHT22;7225;59.282;18.344;2023-02-28T07:21:02;3.30;99.90
14283;DHT22;7225;59.282;18.344;2023-02-28T07:23:29;3.40;99.90
14283;DHT22;7225;59.282;18.344;2023-02-28T07:25:56;3.40;99.90
14283;DHT22;7225;59.282;18.344;2023-02-28T07:28:23;3.40;99.90
14283;DHT22;7225;59.282;18.344;2023-02-28T07:30:50;3.50;99.90
14283;DHT22;7225;59.282;18.344;2023-02-28T07:33:17;3.50;99.90
14283;DHT22;7225;59.282;18.344;2023-02-28T07:35:44;3.50;99.90
14283;DHT22;7225;59.282;18.344;2023-02-28T07:38:12;3.60;99.90
14283;DHT22;7225;59.282;18.344;2023-02-28T07:40:40;3.60;99.90
14283;DHT22;7225;59.282;18.344;2023-02-28T07:43:07;3.60;99.90
14283;DHT22;7225;59.282;18.344;2023-02-28T07:45:34;3.70;99.90
14283;DHT22;7225;59.282;18.344;2023-02-28T07:48:01;3.70;99.90
14283;DHT22;7225;59.282;18.344;2023-02-28T07:50:28;3.70;99.90
14283;DHT22;7225;59.282;18.344;2023-02-28T07:53:00;3.80;99.90
14283;DHT22;7225;59.282;18.344;2023-02-28T07:55:27;3.80;99.90
14283;DHT22;7225;59.282;18.344;2023-02-28T07:57:54;3.90;99.90
14283;DHT22;7225;59.282;18.344;2023-02-28T08:00:22;3.90;99.90
14283;DHT22;7225;59.282;18.344;2023-02-28T08:02:49;4.00;99.90
14283;DHT22;7225;59.282;18.344;2023-02-28T08:05:16;4.00;99.90
14283;DHT22;7225;59.282;18.344;2023-02-28T08:07:49;4.10;99.90
14283;DHT22;7225;59.282;18.344;2023-02-28T08:10:16;4.20;99.90
14283;DHT22;7225;59.282;18.344;2023-02-28T08:12:43;4.20;99.90
14283;DHT22;7225;59.282;18.344;2023-02-28T08:15:11;4.20;99.90
14283;DHT22;7225;59.282;18.344;2023-02-28T08:17:38;4.20;99.90
14283;DHT22;7225;59.282;18.344;2023-02-28T08:20:05;4.30;99.90
14283;DHT22;7225;59.282;18.344;2023-02-28T08:22:33;4.30;99.90
14283;DHT22;7225;59.282;18.344;2023-02-28T08:25:00;4.40;99.90
14283;DHT22;7225;59.282;18.344;2023-02-28T08:27:27;4.40;99.90
14283;DHT22;7225;59.282;18.344;2023-02-28T08:29:54;4.40;99.90
14283;DHT22;7225;59.282;18.344;2023-02-28T08:32:21;4.50;99.90
14283;DHT22;7225;59.282;18.344;2023-02-28T08:34:56;4.50;99.90
14283;DHT22;7225;59.282;18.344;2023-02-28T08:37:23;4.50;99.90
14283;DHT22;7225;59.282;18.344;2023-02-28T08:39:51;4.60;99.90
14283;DHT22;7225;59.282;18.344;2023-02-28T08:42:22;4.60;99.90
14283;DHT22;7225;59.282;18.344;2023-02-28T08:44:49;4.70;99.90
14283;DHT22;7225;59.282;18.344;2023-02-28T08:47:16;4.70;99.90
14283;DHT22;7225;59.282;18.344;2023-02-28T08:49:43;4.70;99.90
14283;DHT22;7225;59.282;18.344;2023-02-28T08:52:10;4.80;99.90
14283;DHT22;7225;59.282;18.344;2023-02-28T08:54:37;4.80;99.90
14283;DHT22;7225;59.282;18.344;2023-02-28T08:57:04;4.90;99.90
14283;DHT22;7225;59.282;18.344;2023-02-28T08:59:32;4.90;99.90
14283;DHT22;7225;59.282;18.344;2023-02-28T09:01:59;4.90;99.90
14283;DHT22;7225;59.282;18.344;2023-02-28T09:04:26;4.90;99.90
14283;DHT22;7225;59.282;18.344;2023-02-28T09:06:53;4.90;99.90
14283;DHT22;7225;59.282;18.344;2023-02-28T09:09:20;4.90;99.90
14283;DHT22;7225;59.282;18.344;2023-02-28T09:11:47;5.00;99.90
14283;DHT22;7225;59.282;18.344;2023-02-28T09:14:14;5.00;99.90
14283;DHT22;7225;59.282;18.344;2023-02-28T09:16:41;5.10;99.90
14283;DHT22;7225;59.282;18.344;2023-02-28T09:19:11;5.20;99.90
14283;DHT22;7225;59.282;18.344;2023-02-28T09:21:38;5.20;99.90
14283;DHT22;7225;59.282;18.344;2023-02-28T09:24:06;5.20;99.90
14283;DHT22;7225;59.282;18.344;2023-02-28T09:26:33;5.30;99.90
14283;DHT22;7225;59.282;18.344;2023-02-28T09:29:09;5.40;99.90
14283;DHT22;7225;59.282;18.344;2023-02-28T09:31:37;5.40;99.90
14283;DHT22;7225;59.282;18.344;2023-02-28T09:34:04;5.50;99.90
14283;DHT22;7225;59.282;18.344;2023-02-28T09:36:32;5.60;99.90
14283;DHT22;7225;59.282;18.344;2023-02-28T09:39:11;5.70;99.90
14283;DHT22;7225;59.282;18.344;2023-02-28T09:41:42;5.80;99.90
14283;DHT22;7225;59.282;18.344;2023-02-28T09:44:40;5.90;99.90
14283;DHT22;7225;59.282;18.344;2023-02-28T09:50:28;6.00;99.90
14283;DHT22;7225;59.282;18.344;2023-02-28T09:52:56;6.10;99.90
14283;DHT22;7225;59.282;18.344;2023-02-28T09:55:42;6.10;99.90
14283;DHT22;7225;59.282;18.344;2023-02-28T09:58:28;6.20;99.90
14283;DHT22;7225;59.282;18.344;2023-02-28T10:10:15;6.30;99.90
14283;DHT22;7225;59.282;18.344;2023-02-28T10:12:45;6.40;99.90
14283;DHT22;7225;59.282;18.344;2023-02-28T10:15:15;6.40;99.90
14283;DHT22;7225;59.282;18.344;2023-02-28T10:17:47;6.40;99.90
14283;DHT22;7225;59.282;18.344;2023-02-28T10:20:28;6.50;99.90
14283;DHT22;7225;59.282;18.344;2023-02-28T10:23:28;6.50;99.90
14283;DHT22;7225;59.282;18.344;2023-02-28T10:26:01;6.60;99.90
14283;DHT22;7225;59.282;18.344;2023-02-28T10:28:29;6.60;99.90
14283;DHT22;7225;59.282;18.344;2023-02-28T10:30:58;6.70;99.90
14283;DHT22;7225;59.282;18.344;2023-02-28T10:33:31;6.70;99.90
14283;DHT22;7225;59.282;18.344;2023-02-28T10:35:59;6.80;99.90
14283;DHT22;7225;59.282;18.344;2023-02-28T10:38:38;6.80;99.90
14283;DHT22;7225;59.282;18.344;2023-02-28T10:41:11;6.80;99.90
14283;DHT22;7225;59.282;18.344;2023-02-28T10:43:41;6.80;99.90
14283;DHT22;7225;59.282;18.344;2023-02-28T10:48:38;6.80;99.90
14283;DHT22;7225;59.282;18.344;2023-02-28T10:51:10;6.80;99.90
14283;DHT22;7225;59.282;18.344;2023-02-28T10:56:26;6.90;99.90
14283;DHT22;7225;59.282;18.344;2023-02-28T11:01:42;7.10;99.90
14283;DHT22;7225;59.282;18.344;2023-02-28T11:04:33;7.20;99.90
14283;DHT22;7225;59.282;18.344;2023-02-28T11:09:52;7.50;99.90
14283;DHT22;7225;59.282;18.344;2023-02-28T11:12:34;7.70;99.90
14283;DHT22;7225;59.282;18.344;2023-02-28T11:15:27;7.70;99.90
14283;DHT22;7225;59.282;18.344;2023-02-28T11:20:52;7.90;99.90
14283;DHT22;7225;59.282;18.344;2023-02-28T11:23:20;8.00;99.90
14283;DHT22;7225;59.282;18.344;2023-02-28T11:25:50;8.20;99.90
14283;DHT22;7225;59.282;18.344;2023-02-28T11:28:33;8.30;99.90
14283;DHT22;7225;59.282;18.344;2023-02-28T11:33:54;8.60;99.90
14283;DHT22;7225;59.282;18.344;2023-02-28T11:36:28;8.70;99.90
14283;DHT22;7225;59.282;18.344;2023-02-28T11:39:15;8.60;99.90
14283;DHT22;7225;59.282;18.344;2023-02-28T11:47:01;8.70;99.90
14283;DHT22;7225;59.282;18.344;2023-02-28T11:55:35;8.80;99.90
14283;DHT22;7225;59.282;18.344;2023-02-28T12:00:56;8.90;99.90
14283;DHT22;7225;59.282;18.344;2023-02-28T12:03:47;8.90;99.90
14283;DHT22;7225;59.282;18.344;2023-02-28T12:09:34;9.20;99.90
14283;DHT22;7225;59.282;18.344;2023-02-28T12:15:03;9.60;99.90
14283;DHT22;7225;59.282;18.344;2023-02-28T12:17:36;9.70;99.90
14283;DHT22;7225;59.282;18.344;2023-02-28T12:28:16;10.30;99.90
14283;DHT22;7225;59.282;18.344;2023-02-28T12:31:00;10.40;99.90
14283;DHT22;7225;59.282;18.344;2023-02-28T12:33:33;10.40;99.90
14283;DHT22;7225;59.282;18.344;2023-02-28T12:36:05;10.50;99.90
14283;DHT22;7225;59.282;18.344;2023-02-28T12:38:51;10.60;99.90
14283;DHT22;7225;59.282;18.344;2023-02-28T12:41:44;10.80;99.90
14283;DHT22;7225;59.282;18.344;2023-02-28T12:46:56;10.90;99.90
14283;DHT22;7225;59.282;18.344;2023-02-28T12:49:36;10.90;99.90
14283;DHT22;7225;59.282;18.344;2023-02-28T12:52:05;10.90;99.90
14283;DHT22;7225;59.282;18.344;2023-02-28T12:54:41;10.90;99.90
14283;DHT22;7225;59.282;18.344;2023-02-28T12:57:34;10.80;99.90
14283;DHT22;7225;59.282;18.344;2023-02-28T13:00:15;10.70;99.90
14283;DHT22;7225;59.282;18.344;2023-02-28T13:08:43;10.50;99.90
14283;DHT22;7225;59.282;18.344;2023-02-28T13:14:29;10.60;99.90
14283;DHT22;7225;59.282;18.344;2023-02-28T13:19:57;10.60;99.90
14283;DHT22;7225;59.282;18.344;2023-02-28T13:24:53;10.60;99.90
14283;DHT22;7225;59.282;18.344;2023-02-28T13:29:52;10.60;99.90
14283;DHT22;7225;59.282;18.344;2023-02-28T13:39:53;10.60;99.90
14283;DHT22;7225;59.282;18.344;2023-02-28T13:42:48;10.60;99.90
14283;DHT22;7225;59.282;18.344;2023-02-28T14:01:36;10.20;99.90
14283;DHT22;7225;59.282;18.344;2023-02-28T14:06:54;10.10;99.90
14283;DHT22;7225;59.282;18.344;2023-02-28T14:09:32;10.00;99.90
14283;DHT22;7225;59.282;18.344;2023-02-28T14:20:43;9.70;99.90
14283;DHT22;7225;59.282;18.344;2023-02-28T14:23:16;9.70;99.90
14283;DHT22;7225;59.282;18.344;2023-02-28T14:28:54;9.60;99.90
14283;DHT22;7225;59.282;18.344;2023-02-28T14:31:36;9.50;99.90
14283;DHT22;7225;59.282;18.344;2023-02-28T14:34:32;9.50;99.90
14283;DHT22;7225;59.282;18.344;2023-02-28T14:37:03;9.40;99.90
14283;DHT22;7225;59.282;18.344;2023-02-28T14:39:31;9.40;99.90
14283;DHT22;7225;59.282;18.344;2023-02-28T14:41:59;9.30;99.90
14283;DHT22;7225;59.282;18.344;2023-02-28T14:44:31;9.30;99.90
14283;DHT22;7225;59.282;18.344;2023-02-28T14:47:02;9.30;99.90
14283;DHT22;7225;59.282;18.344;2023-02-28T14:49:42;9.20;99.90
14283;DHT22;7225;59.282;18.344;2023-02-28T14:52:24;9.20;99.90
14283;DHT22;7225;59.282;18.344;2023-02-28T14:55:03;9.20;99.90
14283;DHT22;7225;59.282;18.344;2023-02-28T14:57:33;9.10;99.90
14283;DHT22;7225;59.282;18.344;2023-02-28T15:00:27;9.10;99.90
14283;DHT22;7225;59.282;18.344;2023-02-28T15:02:55;9.00;99.90
14283;DHT22;7225;59.282;18.344;2023-02-28T15:05:29;8.90;99.90
14283;DHT22;7225;59.282;18.344;2023-02-28T15:08:15;8.90;99.90
14283;DHT22;7225;59.282;18.344;2023-02-28T15:10:55;8.80;99.90
14283;DHT22;7225;59.282;18.344;2023-02-28T15:13:40;8.80;99.90
14283;DHT22;7225;59.282;18.344;2023-02-28T15:16:57;8.80;99.90
14283;DHT22;7225;59.282;18.344;2023-02-28T15:19:05;8.70;99.90
14283;DHT22;7225;59.282;18.344;2023-02-28T15:21:39;8.70;99.90
14283;DHT22;7225;59.282;18.344;2023-02-28T15:24:13;8.60;99.90
14283;DHT22;7225;59.282;18.344;2023-02-28T15:26:44;8.60;99.90
14283;DHT22;7225;59.282;18.344;2023-02-28T15:29:15;8.60;99.90
14283;DHT22;7225;59.282;18.344;2023-02-28T15:32:04;8.60;99.90
14283;DHT22;7225;59.282;18.344;2023-02-28T15:37:29;8.40;99.90
14283;DHT22;7225;59.282;18.344;2023-02-28T15:42:36;8.30;99.90
14283;DHT22;7225;59.282;18.344;2023-02-28T15:45:04;8.30;99.90
14283;DHT22;7225;59.282;18.344;2023-02-28T15:47:31;8.20;99.90
14283;DHT22;7225;59.282;18.344;2023-02-28T15:50:01;8.20;99.90
14283;DHT22;7225;59.282;18.344;2023-02-28T15:52:40;8.20;99.90
14283;DHT22;7225;59.282;18.344;2023-02-28T15:55:18;8.10;99.90
14283;DHT22;7225;59.282;18.344;2023-02-28T15:57:50;8.10;99.90
14283;DHT22;7225;59.282;18.344;2023-02-28T16:00:22;8.00;99.90
14283;DHT22;7225;59.282;18.344;2023-02-28T16:02:50;8.00;99.90
14283;DHT22;7225;59.282;18.344;2023-02-28T16:05:29;7.90;99.90
14283;DHT22;7225;59.282;18.344;2023-02-28T16:08:06;7.90;99.90
14283;DHT22;7225;59.282;18.344;2023-02-28T16:10:37;7.80;99.90
14283;DHT22;7225;59.282;18.344;2023-02-28T16:13:04;7.80;99.90
14283;DHT22;7225;59.282;18.344;2023-02-28T16:15:37;7.80;99.90
14283;DHT22;7225;59.282;18.344;2023-02-28T16:18:12;7.70;99.90
14283;DHT22;7225;59.282;18.344;2023-02-28T16:20:40;7.70;99.90
14283;DHT22;7225;59.282;18.344;2023-02-28T16:23:07;7.60;99.90
14283;DHT22;7225;59.282;18.344;2023-02-28T16:25:42;7.60;99.90
14283;DHT22;7225;59.282;18.344;2023-02-28T16:28:18;7.60;99.90
14283;DHT22;7225;59.282;18.344;2023-02-28T16:30:46;7.60;99.90
14283;DHT22;7225;59.282;18.344;2023-02-28T16:33:13;7.50;99.90
14283;DHT22;7225;59.282;18.344;2023-02-28T16:35:40;7.40;99.90
14283;DHT22;7225;59.282;18.344;2023-02-28T16:38:07;7.40;99.90
14283;DHT22;7225;59.282;18.344;2023-02-28T16:40:35;7.30;99.90
14283;DHT22;7225;59.282;18.344;2023-02-28T16:43:07;7.30;99.90
14283;DHT22;7225;59.282;18.344;2023-02-28T16:45:36;7.20;99.90
14283;DHT22;7225;59.282;18.344;2023-02-28T16:48:03;7.20;99.90
14283;DHT22;7225;59.282;18.344;2023-02-28T16:50:31;7.10;99.90
14283;DHT22;7225;59.282;18.344;2023-02-28T16:53:01;7.10;99.90
14283;DHT22;7225;59.282;18.344;2023-02-28T16:55:27;7.00;99.90
14283;DHT22;7225;59.282;18.344;2023-02-28T16:57:57;7.00;99.90
14283;DHT22;7225;59.282;18.344;2023-02-28T17:00:25;6.90;99.90
14283;DHT22;7225;59.282;18.344;2023-02-28T17:02:54;6.80;99.90
14283;DHT22;7225;59.282;18.344;2023-02-28T17:05:22;6.70;99.90
14283;DHT22;7225;59.282;18.344;2023-02-28T17:07:49;6.70;99.90
14283;DHT22;7225;59.282;18.344;2023-02-28T17:10:18;6.60;99.90
14283;DHT22;7225;59.282;18.344;2023-02-28T17:12:45;6.40;99.90
14283;DHT22;7225;59.282;18.344;2023-02-28T17:15:14;6.40;99.90
14283;DHT22;7225;59.282;18.344;2023-02-28T17:17:42;6.30;99.90
14283;DHT22;7225;59.282;18.344;2023-02-28T17:20:22;6.30;99.90
14283;DHT22;7225;59.282;18.344;2023-02-28T17:22:50;6.30;99.90
14283;DHT22;7225;59.282;18.344;2023-02-28T17:25:17;6.30;99.90
14283;DHT22;7225;59.282;18.344;2023-02-28T17:27:45;6.20;99.90
14283;DHT22;7225;59.282;18.344;2023-02-28T17:30:18;6.20;99.90
14283;DHT22;7225;59.282;18.344;2023-02-28T17:32:46;6.20;99.90
14283;DHT22;7225;59.282;18.344;2023-02-28T17:35:13;6.10;99.90
14283;DHT22;7225;59.282;18.344;2023-02-28T17:37:41;6.00;99.90
14283;DHT22;7225;59.282;18.344;2023-02-28T17:40:16;6.00;99.90
14283;DHT22;7225;59.282;18.344;2023-02-28T17:42:44;6.00;99.90
14283;DHT22;7225;59.282;18.344;2023-02-28T17:45:13;6.00;99.90
14283;DHT22;7225;59.282;18.344;2023-02-28T17:47:42;6.10;99.90
14283;DHT22;7225;59.282;18.344;2023-02-28T17:50:16;6.10;99.90
14283;DHT22;7225;59.282;18.344;2023-02-28T17:52:43;6.10;99.90
14283;DHT22;7225;59.282;18.344;2023-02-28T17:55:11;6.10;99.90
14283;DHT22;7225;59.282;18.344;2023-02-28T17:57:39;6.10;99.90
14283;DHT22;7225;59.282;18.344;2023-02-28T18:00:06;6.10;99.90
14283;DHT22;7225;59.282;18.344;2023-02-28T18:02:34;6.10;99.90
14283;DHT22;7225;59.282;18.344;2023-02-28T18:05:01;6.10;99.90
14283;DHT22;7225;59.282;18.344;2023-02-28T18:07:30;6.10;99.90
14283;DHT22;7225;59.282;18.344;2023-02-28T18:09:57;6.00;99.90
14283;DHT22;7225;59.282;18.344;2023-02-28T18:12:24;6.00;99.90
14283;DHT22;7225;59.282;18.344;2023-02-28T18:14:52;6.00;99.90
14283;DHT22;7225;59.282;18.344;2023-02-28T18:17:19;5.90;99.90
14283;DHT22;7225;59.282;18.344;2023-02-28T18:19:46;5.90;99.90
14283;DHT22;7225;59.282;18.344;2023-02-28T18:22:13;5.90;99.90
14283;DHT22;7225;59.282;18.344;2023-02-28T18:24:40;5.90;99.90
14283;DHT22;7225;59.282;18.344;2023-02-28T18:27:07;5.90;99.90
14283;DHT22;7225;59.282;18.344;2023-02-28T18:29:33;5.90;99.90
14283;DHT22;7225;59.282;18.344;2023-02-28T18:32:00;5.90;99.90
14283;DHT22;7225;59.282;18.344;2023-02-28T18:34:28;5.90;99.90
14283;DHT22;7225;59.282;18.344;2023-02-28T18:36:56;6.00;99.90
14283;DHT22;7225;59.282;18.344;2023-02-28T18:39:23;6.00;99.90
14283;DHT22;7225;59.282;18.344;2023-02-28T18:41:50;6.00;99.90
14283;DHT22;7225;59.282;18.344;2023-02-28T18:44:17;5.90;99.90
14283;DHT22;7225;59.282;18.344;2023-02-28T18:46:47;5.70;99.90
14283;DHT22;7225;59.282;18.344;2023-02-28T18:49:15;5.60;99.90
14283;DHT22;7225;59.282;18.344;2023-02-28T18:51:43;5.50;99.90